createdAt,value
2022-08-20T00:02:13.048Z,11.43
2022-08-20T00:04:42.298Z,9.68
2022-08-20T00:07:10.110Z,8.07
2022-08-20T00:09:37.949Z,7.68
2022-08-20T00:12:06.851Z,7.95
2022-08-20T00:14:35.033Z,8.45
2022-08-20T00:17:03.092Z,6.18
2022-08-20T00:19:30.852Z,6.20
2022-08-20T00:21:59.967Z,6.15
2022-08-20T00:24:27.858Z,6.32
2022-08-20T00:26:55.714Z,6.93
2022-08-20T00:29:23.569Z,5.35
2022-08-20T00:31:51.716Z,7.30
2022-08-20T00:34:20.088Z,4.90
2022-08-20T00:36:48.049Z,6.35
2022-08-20T00:39:17.207Z,6.55
2022-08-20T00:41:45.815Z,4.55
2022-08-20T00:44:16.557Z,3.78
2022-08-20T00:46:47.329Z,4.43
2022-08-20T00:49:19.103Z,5.35
2022-08-20T00:51:51.295Z,3.42
2022-08-20T00:54:24.884Z,4.93
2022-08-20T00:56:57.899Z,7.22
2022-08-20T00:59:30.620Z,6.65
2022-08-20T01:01:59.141Z,5.82
2022-08-20T01:04:29.539Z,8.90
2022-08-20T01:06:57.987Z,5.50
2022-08-20T01:09:50.329Z,3.67
2022-08-20T01:12:17.222Z,3.47
2022-08-20T01:14:47.443Z,4.15
2022-08-20T01:17:18.448Z,5.22
2022-08-20T01:19:50.045Z,4.35
2022-08-20T01:22:42.314Z,5.43
2022-08-20T01:25:21.377Z,4.80
2022-08-20T01:27:55.520Z,6.43
2022-08-20T01:30:27.324Z,5.22
2022-08-20T01:32:55.420Z,6.95
2022-08-20T01:35:24.587Z,5.75
2022-08-20T01:37:52.823Z,3.95
2022-08-20T01:40:45.334Z,4.93
2022-08-20T01:43:14.945Z,5.28
2022-08-20T01:45:45.141Z,5.22
2022-08-20T01:48:14.865Z,6.50
2022-08-20T01:50:48.539Z,12.25
2022-08-20T01:53:21.914Z,7.57
2022-08-20T01:55:49.761Z,6.18
2022-08-20T01:58:19.406Z,6.88
2022-08-20T02:00:47.686Z,6.57
2022-08-20T02:03:15.402Z,6.43
2022-08-20T02:05:43.203Z,5.78
2022-08-20T02:08:10.984Z,7.18
2022-08-20T02:10:38.773Z,10.57
2022-08-20T02:13:09.589Z,7.65
2022-08-20T02:15:42.883Z,9.82
2022-08-20T02:18:13.272Z,16.20
2022-08-20T02:20:43.065Z,13.73
2022-08-20T02:23:12.979Z,10.65
2022-08-20T02:25:42.659Z,13.43
2022-08-20T02:28:13.981Z,11.20
2022-08-20T02:30:46.331Z,15.82
2022-08-20T02:33:17.181Z,9.35
2022-08-20T02:35:47.661Z,10.27
2022-08-20T02:38:16.586Z,8.40
2022-08-20T02:40:46.334Z,11.20
2022-08-20T02:43:14.459Z,11.75
2022-08-20T02:45:44.619Z,14.65
2022-08-20T02:48:20.584Z,11.98
2022-08-20T02:50:50.674Z,11.00
2022-08-20T02:53:18.955Z,10.07
2022-08-20T02:55:47.066Z,10.23
2022-08-20T02:58:15.292Z,8.60
2022-08-20T03:00:44.655Z,11.25
2022-08-20T03:03:14.043Z,14.07
2022-08-20T03:05:44.198Z,12.88
2022-08-20T03:08:14.829Z,12.20
2022-08-20T03:10:44.813Z,12.85
2022-08-20T03:13:13.726Z,15.90
2022-08-20T03:15:44.962Z,11.95
2022-08-20T03:18:13.866Z,12.55
2022-08-20T03:20:42.028Z,15.75
2022-08-20T03:23:09.946Z,14.40
2022-08-20T03:25:37.895Z,14.13
2022-08-20T03:28:06.122Z,14.82
2022-08-20T03:30:34.139Z,15.15
2022-08-20T03:33:03.393Z,17.90
2022-08-20T03:35:33.854Z,17.58
2022-08-20T03:38:01.807Z,18.92
2022-08-20T03:40:32.583Z,20.27
2022-08-20T03:43:00.674Z,16.63
2022-08-20T03:45:29.773Z,19.58
2022-08-20T03:47:58.428Z,18.88
2022-08-20T03:50:30.869Z,17.73
2022-08-20T03:52:59.986Z,16.15
2022-08-20T03:55:28.951Z,18.38
2022-08-20T03:57:58.937Z,20.00
2022-08-20T04:00:29.618Z,25.58
2022-08-20T04:02:57.460Z,23.63
2022-08-20T04:05:28.316Z,23.27
2022-08-20T04:07:58.425Z,24.52
2022-08-20T04:10:31.379Z,21.90
2022-08-20T04:12:59.312Z,21.90
2022-08-20T04:15:27.846Z,24.02
2022-08-20T04:17:55.838Z,25.50
2022-08-20T04:20:27.231Z,25.35
2022-08-20T04:22:58.867Z,27.20
2022-08-20T04:25:28.441Z,22.80
2022-08-20T04:27:57.976Z,23.90
2022-08-20T04:30:26.749Z,24.88
2022-08-20T04:32:55.314Z,26.45
2022-08-20T04:35:25.333Z,28.98
2022-08-20T04:38:01.256Z,25.13
2022-08-20T04:40:48.044Z,25.20
2022-08-20T04:43:16.199Z,27.67
2022-08-20T04:45:44.728Z,21.52
2022-08-20T04:48:15.190Z,27.13
2022-08-20T04:50:44.847Z,29.23
2022-08-20T04:53:16.717Z,27.02
2022-08-20T04:55:45.913Z,26.73
2022-08-20T04:58:16.588Z,22.65
2022-08-20T05:00:47.001Z,24.95
2022-08-20T05:03:15.489Z,25.15
2022-08-20T05:05:44.952Z,26.15
2022-08-20T05:08:20.116Z,25.92
2022-08-20T05:10:48.571Z,25.33
2022-08-20T05:13:16.952Z,24.95
2022-08-20T05:15:45.524Z,25.83
2022-08-20T05:18:14.211Z,26.17
2022-08-20T05:20:43.418Z,28.17
2022-08-20T05:23:13.079Z,28.88
2022-08-20T05:25:44.182Z,29.63
2022-08-20T05:28:17.626Z,29.98
2022-08-20T05:30:48.267Z,26.48
2022-08-20T05:33:19.954Z,29.63
2022-08-20T05:35:49.335Z,28.83
2022-08-20T05:38:19.183Z,25.55
2022-08-20T05:40:49.145Z,30.70
2022-08-20T05:43:18.289Z,27.27
2022-08-20T05:45:54.714Z,23.05
2022-08-20T05:48:25.352Z,28.27
2022-08-20T05:50:55.371Z,24.63
2022-08-20T05:53:25.701Z,25.35
2022-08-20T05:55:55.295Z,23.60
2022-08-20T05:58:25.492Z,22.85
2022-08-20T06:00:54.691Z,26.23
2022-08-20T06:03:40.467Z,25.17
2022-08-20T06:06:32.246Z,26.05
2022-08-20T06:08:56.919Z,25.00
2022-08-20T06:11:26.029Z,24.85
2022-08-20T06:13:53.827Z,25.63
2022-08-20T06:16:21.659Z,23.13
2022-08-20T06:18:49.466Z,25.10
2022-08-20T06:21:17.350Z,24.45
2022-08-20T06:23:56.788Z,25.88
2022-08-20T06:26:30.272Z,28.42
2022-08-20T06:28:58.675Z,23.75
2022-08-20T06:31:27.324Z,25.25
2022-08-20T06:33:55.425Z,21.95
2022-08-20T06:36:23.741Z,28.95
2022-08-20T06:38:51.738Z,24.00
2022-08-20T06:41:19.494Z,25.50
2022-08-20T06:43:48.618Z,22.65
2022-08-20T06:46:16.407Z,25.13
2022-08-20T06:48:44.200Z,24.45
2022-08-20T06:51:12.032Z,24.73
2022-08-20T06:53:39.966Z,23.40
2022-08-20T06:56:07.974Z,23.00
2022-08-20T06:58:38.677Z,25.45
2022-08-20T07:01:11.455Z,28.15
2022-08-20T07:03:40.566Z,20.42
2022-08-20T07:06:23.534Z,20.55
2022-08-20T07:08:51.297Z,21.48
2022-08-20T07:11:26.343Z,19.30
2022-08-20T07:13:56.474Z,20.98
2022-08-20T07:16:25.996Z,21.13
2022-08-20T07:18:53.849Z,17.42
2022-08-20T07:21:21.691Z,16.65
2022-08-20T07:23:49.832Z,19.40
2022-08-20T07:26:18.258Z,15.25
2022-08-20T07:28:46.758Z,21.70
2022-08-20T07:31:32.219Z,17.10
2022-08-20T07:34:04.335Z,16.63
2022-08-20T07:36:32.665Z,16.85
2022-08-20T07:39:06.093Z,17.67
2022-08-20T07:41:35.125Z,16.20
2022-08-20T07:44:03.717Z,19.50
2022-08-20T07:46:32.198Z,16.65
2022-08-20T07:49:00.419Z,14.05
2022-08-20T07:51:29.842Z,19.40
2022-08-20T07:53:59.994Z,20.00
2022-08-20T07:56:28.062Z,18.33
2022-08-20T07:58:59.197Z,17.13
2022-08-20T08:01:30.571Z,16.67
2022-08-20T08:03:58.969Z,16.17
2022-08-20T08:06:31.361Z,13.23
2022-08-20T08:09:04.147Z,10.88
2022-08-20T08:11:34.199Z,13.35
2022-08-20T08:14:03.802Z,10.35
2022-08-20T08:16:32.506Z,11.73
2022-08-20T08:19:01.793Z,11.85
2022-08-20T08:21:31.749Z,18.25
2022-08-20T08:23:59.703Z,17.17
2022-08-20T08:26:28.929Z,15.07
2022-08-20T08:28:57.981Z,11.60
2022-08-20T08:31:26.211Z,11.02
2022-08-20T08:33:54.357Z,12.90
2022-08-20T08:36:22.472Z,10.60
2022-08-20T08:38:51.563Z,11.73
2022-08-20T08:41:22.627Z,13.50
2022-08-20T08:43:53.912Z,13.32
2022-08-20T08:46:24.576Z,10.95
2022-08-20T08:48:55.667Z,10.80
2022-08-20T08:51:36.241Z,8.00
2022-08-20T08:54:07.588Z,7.88
2022-08-20T08:56:36.417Z,10.32
2022-08-20T08:59:07.644Z,13.13
2022-08-20T09:01:54.914Z,8.88
2022-08-20T09:04:29.098Z,7.72
2022-08-20T09:06:57.389Z,9.43
2022-08-20T09:09:30.493Z,6.63
2022-08-20T09:12:04.821Z,8.23
2022-08-20T09:14:32.694Z,7.43
2022-08-20T09:17:00.537Z,9.77
2022-08-20T09:19:28.406Z,7.57
2022-08-20T09:21:56.287Z,6.63
2022-08-20T09:24:24.784Z,9.93
2022-08-20T09:26:53.944Z,8.38
2022-08-20T09:29:21.751Z,6.28
2022-08-20T09:31:49.527Z,7.47
2022-08-20T09:34:17.529Z,6.60
2022-08-20T09:36:46.460Z,7.70
2022-08-20T09:39:14.207Z,10.38
2022-08-20T09:41:42.257Z,7.45
2022-08-20T09:44:11.393Z,7.25
2022-08-20T09:46:39.206Z,6.53
2022-08-20T09:49:08.950Z,8.82
2022-08-20T09:51:38.739Z,12.05
2022-08-20T09:54:07.046Z,6.72
2022-08-20T09:56:35.799Z,7.90
2022-08-20T09:59:03.635Z,7.15
2022-08-20T10:01:33.190Z,8.50
2022-08-20T10:04:01.098Z,7.43
2022-08-20T10:06:28.899Z,6.63
2022-08-20T10:08:56.728Z,6.45
2022-08-20T10:11:24.510Z,7.00
2022-08-20T10:13:52.833Z,8.57
2022-08-20T10:16:20.607Z,9.73
2022-08-20T10:18:50.127Z,7.30
2022-08-20T10:21:18.301Z,7.95
2022-08-20T10:23:46.353Z,5.50
2022-08-20T10:26:15.062Z,6.97
2022-08-20T10:28:42.865Z,6.22
2022-08-20T10:31:12.426Z,7.40
2022-08-20T10:33:41.396Z,5.28
2022-08-20T10:36:13.770Z,3.50
2022-08-20T10:38:41.951Z,4.32
2022-08-20T10:41:11.490Z,4.03
2022-08-20T10:43:39.342Z,5.85
2022-08-20T10:46:07.531Z,4.22
2022-08-20T10:48:35.676Z,4.60
2022-08-20T10:51:03.538Z,4.47
2022-08-20T10:53:32.923Z,4.47
2022-08-20T10:56:00.843Z,4.53
2022-08-20T10:58:37.593Z,5.90
2022-08-20T11:01:07.751Z,4.05
2022-08-20T11:03:35.704Z,6.07
2022-08-20T11:06:03.923Z,6.00
2022-08-20T11:08:34.429Z,5.55
2022-08-20T11:11:04.537Z,7.05
2022-08-20T11:13:32.841Z,5.30
2022-08-20T11:16:01.570Z,6.57
2022-08-20T11:18:29.469Z,6.20
2022-08-20T11:20:57.639Z,6.47
2022-08-20T11:23:25.583Z,6.53
2022-08-20T11:25:55.425Z,6.50
2022-08-20T11:28:31.599Z,5.18
2022-08-20T11:31:00.404Z,7.82
2022-08-20T11:33:28.366Z,9.15
2022-08-20T11:35:56.117Z,6.55
2022-08-20T11:38:23.980Z,6.53
2022-08-20T11:40:51.777Z,8.48
2022-08-20T11:43:20.928Z,7.13
2022-08-20T11:45:51.532Z,7.05
2022-08-20T11:48:19.418Z,6.10
2022-08-20T11:50:48.191Z,6.32
2022-08-20T11:53:16.294Z,5.38
2022-08-20T11:55:44.503Z,8.52
2022-08-20T11:58:12.719Z,5.78
2022-08-20T12:00:42.319Z,7.60
2022-08-20T12:03:11.936Z,7.30
2022-08-20T12:05:41.383Z,7.25
2022-08-20T12:08:09.982Z,5.85
2022-08-20T12:10:38.293Z,7.20
2022-08-20T12:13:06.342Z,5.00
2022-08-20T12:15:34.186Z,4.72
2022-08-20T12:18:07.271Z,4.88
2022-08-20T12:20:35.435Z,5.53
2022-08-20T12:23:03.850Z,5.13
2022-08-20T12:25:31.676Z,9.90
2022-08-20T12:27:59.470Z,6.55
2022-08-20T12:30:27.628Z,4.93
2022-08-20T12:32:55.709Z,4.70
2022-08-20T12:35:25.777Z,6.47
2022-08-20T12:37:54.022Z,5.28
2022-08-20T12:40:32.892Z,7.38
2022-08-20T12:43:01.302Z,4.97
2022-08-20T12:45:29.671Z,5.25
2022-08-20T12:48:03.592Z,3.90
2022-08-20T12:50:32.991Z,8.35
2022-08-20T12:53:01.557Z,5.97
2022-08-20T12:55:29.767Z,8.27
2022-08-20T12:58:00.857Z,6.25
2022-08-20T13:00:31.945Z,6.95
2022-08-20T13:03:02.166Z,6.28
2022-08-20T13:05:32.304Z,5.00
2022-08-20T13:08:00.469Z,4.20
2022-08-20T13:10:30.951Z,6.72
2022-08-20T13:12:58.959Z,9.27
2022-08-20T13:15:27.228Z,3.97
2022-08-20T13:17:55.876Z,7.65
2022-08-20T13:20:25.605Z,7.35
2022-08-20T13:23:00.389Z,6.68
2022-08-20T13:25:28.230Z,8.05
2022-08-20T13:27:58.096Z,5.22
2022-08-20T13:30:26.411Z,5.18
2022-08-20T13:32:54.567Z,7.43
2022-08-20T13:35:22.900Z,6.18
2022-08-20T13:37:51.661Z,4.68
2022-08-20T13:40:20.969Z,5.50
2022-08-20T13:42:48.805Z,6.13
2022-08-20T13:45:16.639Z,3.63
2022-08-20T13:47:44.982Z,6.90
2022-08-20T13:50:16.092Z,4.78
2022-08-20T13:52:44.691Z,7.45
2022-08-20T13:55:16.347Z,4.40
2022-08-20T13:57:46.133Z,6.03
2022-08-20T14:00:17.550Z,5.95
2022-08-20T14:02:45.750Z,6.75
2022-08-20T14:05:14.878Z,5.80
2022-08-20T14:07:47.057Z,5.55
2022-08-20T14:10:18.136Z,5.20
2022-08-20T14:12:48.586Z,3.97
2022-08-20T14:15:16.631Z,7.13
2022-08-20T14:17:45.566Z,6.28
2022-08-20T14:20:16.636Z,6.55
2022-08-20T14:22:45.726Z,7.30
2022-08-20T14:25:15.228Z,4.75
2022-08-20T14:27:43.743Z,3.88
2022-08-20T14:30:16.558Z,5.35
2022-08-20T14:32:44.525Z,6.53
2022-08-20T14:35:12.522Z,4.72
2022-08-20T14:37:42.883Z,2.92
2022-08-20T14:40:13.196Z,3.65
2022-08-20T14:42:41.662Z,8.40
2022-08-20T14:45:14.347Z,7.78
2022-08-20T14:47:44.693Z,5.30
2022-08-20T14:50:14.369Z,5.07
2022-08-20T14:52:42.390Z,7.75
2022-08-20T14:55:12.615Z,4.65
2022-08-20T14:57:40.690Z,6.65
2022-08-20T15:00:11.100Z,9.65
2022-08-20T15:02:40.774Z,3.97
2022-08-20T15:05:09.948Z,6.63
2022-08-20T15:07:40.326Z,2.80
2022-08-20T15:10:12.737Z,4.97
2022-08-20T15:12:43.088Z,4.00
2022-08-20T15:15:15.423Z,4.80
2022-08-20T15:17:47.595Z,4.57
2022-08-20T15:20:19.837Z,6.82
2022-08-20T15:22:49.871Z,7.38
2022-08-20T15:25:20.725Z,5.90
2022-08-20T15:27:49.616Z,5.63
2022-08-20T15:30:19.091Z,6.03
2022-08-20T15:32:55.488Z,9.88
2022-08-20T15:35:24.112Z,6.35
2022-08-20T15:37:54.711Z,6.50
2022-08-20T15:40:28.254Z,3.35
2022-08-20T15:42:56.491Z,5.30
2022-08-20T15:45:24.563Z,3.60
2022-08-20T15:48:00.432Z,7.03
2022-08-20T15:51:00.268Z,3.47
2022-08-20T15:53:33.035Z,5.82
2022-08-20T15:56:14.450Z,5.47
2022-08-20T15:58:52.475Z,6.47
2022-08-20T16:01:29.571Z,4.65
2022-08-20T16:04:26.323Z,6.05
2022-08-20T16:06:58.911Z,8.00
2022-08-20T16:09:42.334Z,5.25
2022-08-20T16:12:12.817Z,8.60
2022-08-20T16:14:43.561Z,8.95
2022-08-20T16:17:16.462Z,8.30
2022-08-20T16:19:53.356Z,4.35
2022-08-20T16:22:21.414Z,5.90
2022-08-20T16:24:50.205Z,5.60
2022-08-20T16:27:28.125Z,4.97
2022-08-20T16:30:01.055Z,4.97
2022-08-20T16:32:36.537Z,3.63
2022-08-20T16:35:13.642Z,6.30
2022-08-20T16:37:47.980Z,5.10
2022-08-20T16:40:22.495Z,8.93
2022-08-20T16:42:53.506Z,4.63
2022-08-20T16:45:25.856Z,6.35
2022-08-20T16:47:58.242Z,3.13
2022-08-20T16:50:32.692Z,5.55
2022-08-20T16:53:00.625Z,4.25
2022-08-20T16:55:28.401Z,3.60
2022-08-20T16:57:56.198Z,3.50
2022-08-20T17:00:26.469Z,5.10
2022-08-20T17:02:56.303Z,5.57
2022-08-20T17:05:27.726Z,4.97
2022-08-20T17:08:01.487Z,5.60
2022-08-20T17:10:32.622Z,3.45
2022-08-20T17:13:05.082Z,3.80
2022-08-20T17:15:35.535Z,5.88
2022-08-20T17:18:20.526Z,4.00
2022-08-20T17:20:50.118Z,4.53
2022-08-20T17:23:20.978Z,9.07
2022-08-20T17:25:58.132Z,6.88
2022-08-20T17:28:26.868Z,3.80
2022-08-20T17:30:55.758Z,4.50
2022-08-20T17:33:29.530Z,4.90
2022-08-20T17:36:02.055Z,2.25
2022-08-20T17:38:35.452Z,4.53
2022-08-20T17:41:09.927Z,4.28
2022-08-20T17:43:43.561Z,4.60
2022-08-20T17:46:17.261Z,7.57
2022-08-20T17:48:46.122Z,5.22
2022-08-20T17:51:18.103Z,5.00
2022-08-20T17:53:48.258Z,2.83
2022-08-20T17:56:21.202Z,8.02
2022-08-20T17:58:54.329Z,3.13
2022-08-20T18:01:23.645Z,5.85
2022-08-20T18:03:52.746Z,9.60
2022-08-20T18:06:30.710Z,3.00
2022-08-20T18:09:05.409Z,8.88
2022-08-20T18:11:38.051Z,6.38
2022-08-20T18:14:19.955Z,4.82
2022-08-20T18:17:02.919Z,6.07
2022-08-20T18:19:49.921Z,8.30
2022-08-20T18:22:23.791Z,6.25
2022-08-20T18:25:02.264Z,6.22
2022-08-20T18:27:38.585Z,4.30
2022-08-20T18:30:16.283Z,3.58
2022-08-20T18:32:44.721Z,5.00
2022-08-20T18:35:14.640Z,6.78
2022-08-20T18:37:43.907Z,2.78
2022-08-20T18:40:17.304Z,6.28
2022-08-20T18:42:47.763Z,7.38
2022-08-20T18:45:29.059Z,6.70
2022-08-20T18:47:57.134Z,5.13
2022-08-20T18:50:32.625Z,4.22
2022-08-20T18:53:16.622Z,5.75
2022-08-20T18:55:47.059Z,4.30
2022-08-20T18:58:16.907Z,7.07
2022-08-20T19:00:45.952Z,4.90
2022-08-20T19:03:20.271Z,3.47
2022-08-20T19:06:05.392Z,7.65
2022-08-20T19:08:43.811Z,8.82
2022-08-20T19:11:44.314Z,6.40
2022-08-20T19:14:29.846Z,8.07
2022-08-20T19:17:02.307Z,4.78
2022-08-20T19:19:32.975Z,5.40
2022-08-20T19:22:02.676Z,6.72
2022-08-20T19:24:35.186Z,4.57
2022-08-20T19:27:06.023Z,5.00
2022-08-20T19:29:41.746Z,6.40
2022-08-20T19:32:16.939Z,7.75
2022-08-20T19:34:52.905Z,5.35
2022-08-20T19:37:35.348Z,8.77
2022-08-20T19:40:24.445Z,6.40
2022-08-20T19:42:57.326Z,6.45
2022-08-20T19:45:30.450Z,7.95
2022-08-20T19:48:12.262Z,5.55
2022-08-20T19:50:46.757Z,9.02
2022-08-20T19:53:26.427Z,3.63
2022-08-20T19:56:01.683Z,4.95
2022-08-20T19:58:31.093Z,6.45
2022-08-20T20:00:59.386Z,8.80
2022-08-20T20:03:28.924Z,5.38
2022-08-20T20:06:00.106Z,4.72
2022-08-20T20:08:30.760Z,6.10
2022-08-20T20:11:01.543Z,9.20
2022-08-20T20:13:35.978Z,6.25
2022-08-20T20:16:08.703Z,3.15
2022-08-20T20:18:40.323Z,5.13
2022-08-20T20:21:15.226Z,5.70
2022-08-20T20:23:51.069Z,4.82
2022-08-20T20:26:20.799Z,5.70
2022-08-20T20:28:51.759Z,5.38
2022-08-20T20:31:24.961Z,6.47
2022-08-20T20:33:55.124Z,13.30
2022-08-20T20:36:34.001Z,7.65
2022-08-20T20:39:07.262Z,2.60
2022-08-20T20:41:38.318Z,5.80
2022-08-20T20:44:16.805Z,5.25
2022-08-20T20:46:48.048Z,5.10
2022-08-20T20:49:23.494Z,4.38
2022-08-20T20:51:58.782Z,5.72
2022-08-20T20:54:40.501Z,5.25
2022-08-20T20:57:31.800Z,5.40
2022-08-20T21:00:09.214Z,4.78
2022-08-20T21:02:36.984Z,5.18
2022-08-20T21:05:05.583Z,7.40
2022-08-20T21:07:33.454Z,8.73
2022-08-20T21:10:01.303Z,3.92
2022-08-20T21:12:30.812Z,8.05
2022-08-20T21:14:58.636Z,7.43
2022-08-20T21:17:27.712Z,8.50
2022-08-20T21:19:55.519Z,7.65
2022-08-20T21:22:23.450Z,7.78
2022-08-20T21:24:51.516Z,7.00
2022-08-20T21:27:21.615Z,6.10
2022-08-20T21:29:52.047Z,5.45
2022-08-20T21:32:19.939Z,6.28
2022-08-20T21:34:48.327Z,6.32
2022-08-20T21:37:17.083Z,7.25
2022-08-20T21:39:45.073Z,4.43
2022-08-20T21:42:22.975Z,4.75
2022-08-20T21:44:58.967Z,4.28
2022-08-20T21:47:27.861Z,6.20
2022-08-20T21:49:56.065Z,4.93
2022-08-20T21:52:24.321Z,7.88
2022-08-20T21:54:53.159Z,3.85
2022-08-20T21:57:23.623Z,6.82
2022-08-20T21:59:51.947Z,5.78
2022-08-20T22:02:21.759Z,6.22
2022-08-20T22:04:54.030Z,4.20
2022-08-20T22:07:22.482Z,4.55
2022-08-20T22:09:50.275Z,4.28
2022-08-20T22:12:20.450Z,5.93
2022-08-20T22:14:48.417Z,3.10
2022-08-20T22:17:16.554Z,4.68
2022-08-20T22:19:45.680Z,4.78
2022-08-20T22:22:15.592Z,7.22
2022-08-20T22:24:45.475Z,5.80
2022-08-20T22:27:13.450Z,8.07
2022-08-20T22:29:41.412Z,4.00
2022-08-20T22:32:09.264Z,8.70
2022-08-20T22:34:38.772Z,4.25
2022-08-20T22:37:08.360Z,6.63
2022-08-20T22:39:36.203Z,4.68
2022-08-20T22:42:04.470Z,6.60
2022-08-20T22:44:32.538Z,5.18
2022-08-20T22:47:03.421Z,9.38
2022-08-20T22:49:34.802Z,3.78
2022-08-20T22:52:02.809Z,7.30
2022-08-20T22:54:32.382Z,3.33
2022-08-20T22:57:00.193Z,10.40
2022-08-20T22:59:28.008Z,6.47
2022-08-20T23:01:57.753Z,8.55
2022-08-20T23:04:28.710Z,5.65
2022-08-20T23:06:57.872Z,7.53
2022-08-20T23:09:26.902Z,5.05
2022-08-20T23:11:56.617Z,6.75
2022-08-20T23:14:27.034Z,5.88
2022-08-20T23:17:00.703Z,7.72
2022-08-20T23:19:28.706Z,6.53
2022-08-20T23:21:56.729Z,7.32
2022-08-20T23:24:24.663Z,8.45
2022-08-20T23:26:53.057Z,5.70
2022-08-20T23:29:25.842Z,4.93
2022-08-20T23:31:55.057Z,9.30
2022-08-20T23:34:23.037Z,6.10
2022-08-20T23:36:52.339Z,6.60
2022-08-20T23:39:20.619Z,13.13
2022-08-20T23:41:48.666Z,6.63
2022-08-20T23:44:26.243Z,5.88
2022-08-20T23:46:57.621Z,8.00
2022-08-20T23:49:25.702Z,5.30
2022-08-20T23:51:53.477Z,6.15
2022-08-20T23:54:21.238Z,5.47
2022-08-20T23:56:49.449Z,9.48
2022-08-20T23:59:17.713Z,11.35
